createdAt,value
2018-06-03T00:00:43.067Z,-74
2018-06-03T00:03:14.631Z,-74
2018-06-03T00:05:45.895Z,-74
2018-06-03T00:08:15.446Z,-74
2018-06-03T00:10:45.359Z,-74
2018-06-03T00:13:15.689Z,-74
2018-06-03T00:15:44.926Z,-74
2018-06-03T00:18:14.851Z,-74
2018-06-03T00:21:01.863Z,-74
2018-06-03T00:23:30.985Z,-74
2018-06-03T00:26:00.241Z,-74
2018-06-03T00:28:29.307Z,-74
2018-06-03T00:30:58.400Z,-74
2018-06-03T00:33:27.704Z,-74
2018-06-03T00:36:14.578Z,-74
2018-06-03T00:38:45.720Z,-74
2018-06-03T00:41:14.875Z,-74
2018-06-03T00:43:43.937Z,-74
2018-06-03T00:46:13.060Z,-74
2018-06-03T00:48:42.151Z,-74
2018-06-03T00:51:11.168Z,-74
2018-06-03T00:53:40.941Z,-74
2018-06-03T00:56:09.988Z,-74
2018-06-03T00:58:39.004Z,-74
2018-06-03T01:01:08.041Z,-74
2018-06-03T01:03:37.048Z,-74
2018-06-03T01:06:06.111Z,-74
2018-06-03T01:08:35.124Z,-75
2018-06-03T01:11:04.123Z,-74
2018-06-03T01:13:33.989Z,-74
2018-06-03T01:16:03.017Z,-74
2018-06-03T01:18:32.015Z,-74
2018-06-03T01:21:01.062Z,-74
2018-06-03T01:23:30.413Z,-74
2018-06-03T01:25:59.418Z,-74
2018-06-03T01:28:29.196Z,-74
2018-06-03T01:30:58.233Z,-74
2018-06-03T01:33:28.003Z,-74
2018-06-03T01:35:57.047Z,-74
2018-06-03T01:38:26.135Z,-74
2018-06-03T01:40:55.143Z,-74
2018-06-03T01:43:24.162Z,-74
2018-06-03T01:45:53.226Z,-74
2018-06-03T01:48:22.236Z,-74
2018-06-03T01:50:51.251Z,-74
2018-06-03T01:53:20.292Z,-73
2018-06-03T01:55:49.318Z,-74
2018-06-03T01:58:18.354Z,-74
2018-06-03T02:00:47.362Z,-74
2018-06-03T02:03:17.159Z,-74
2018-06-03T02:05:46.171Z,-74
2018-06-03T02:08:15.252Z,-74
2018-06-03T02:10:45.023Z,-74
2018-06-03T02:13:14.044Z,-74
2018-06-03T02:15:43.143Z,-73
2018-06-03T02:18:12.919Z,-74
2018-06-03T02:20:41.923Z,-74
2018-06-03T02:23:11.014Z,-74
2018-06-03T02:25:40.043Z,-74
2018-06-03T02:28:09.832Z,-74
2018-06-03T02:30:38.867Z,-74
2018-06-03T02:33:07.891Z,-74
2018-06-03T02:35:36.934Z,-74
2018-06-03T02:38:06.709Z,-74
2018-06-03T02:40:35.862Z,-74
2018-06-03T02:43:04.887Z,-74
2018-06-03T02:45:33.902Z,-74
2018-06-03T02:48:02.937Z,-74
2018-06-03T02:50:31.956Z,-73
2018-06-03T02:53:01.009Z,-74
2018-06-03T02:55:30.821Z,-74
2018-06-03T02:57:59.829Z,-74
2018-06-03T03:00:28.873Z,-74
2018-06-03T03:02:57.884Z,-74
2018-06-03T03:05:26.923Z,-73
2018-06-03T03:07:55.950Z,-74
2018-06-03T03:10:24.947Z,-74
2018-06-03T03:12:54.002Z,-74
2018-06-03T03:15:23.013Z,-74
2018-06-03T03:17:52.031Z,-74
2018-06-03T03:20:21.100Z,-74
2018-06-03T03:22:50.112Z,-74
2018-06-03T03:25:19.119Z,-74
2018-06-03T03:27:48.161Z,-74
2018-06-03T03:30:17.455Z,-74
2018-06-03T03:32:46.493Z,-74
2018-06-03T03:35:15.506Z,-73
2018-06-03T03:37:44.545Z,-74
2018-06-03T03:40:13.553Z,-74
2018-06-03T03:42:42.619Z,-74
2018-06-03T03:45:12.158Z,-74
2018-06-03T03:47:41.167Z,-74
2018-06-03T03:50:10.222Z,-74
2018-06-03T03:52:39.237Z,-74
2018-06-03T03:55:08.239Z,-73
2018-06-03T03:57:37.274Z,-73
2018-06-03T04:00:06.279Z,-74
2018-06-03T04:02:35.319Z,-74
2018-06-03T04:05:04.331Z,-74
2018-06-03T04:07:34.137Z,-74
2018-06-03T04:10:03.236Z,-74
2018-06-03T04:12:32.275Z,-74
2018-06-03T04:15:01.288Z,-74
2018-06-03T04:17:30.323Z,-74
2018-06-03T04:19:59.337Z,-74
2018-06-03T04:22:28.378Z,-74
2018-06-03T04:24:57.383Z,-74
2018-06-03T04:27:26.427Z,-75
2018-06-03T04:29:55.438Z,-74
2018-06-03T04:32:24.461Z,-74
2018-06-03T04:34:53.503Z,-73
2018-06-03T04:37:22.506Z,-74
2018-06-03T04:39:51.547Z,-74
2018-06-03T04:42:20.553Z,-74
2018-06-03T04:44:50.375Z,-74
2018-06-03T04:47:19.380Z,-74
2018-06-03T04:49:48.387Z,-74
2018-06-03T04:52:17.426Z,-74
2018-06-03T04:54:46.475Z,-74
2018-06-03T04:57:15.484Z,-74
2018-06-03T04:59:44.527Z,-74
2018-06-03T05:02:14.298Z,-74
2018-06-03T05:04:43.338Z,-74
2018-06-03T05:07:12.343Z,-74
2018-06-03T05:09:41.383Z,-74
2018-06-03T05:12:10.394Z,-74
2018-06-03T05:14:39.434Z,-74
2018-06-03T05:17:08.471Z,-74
2018-06-03T05:19:37.908Z,-74
2018-06-03T05:22:06.931Z,-74
2018-06-03T05:24:35.951Z,-74
2018-06-03T05:27:04.997Z,-73
2018-06-03T05:29:34.767Z,-73
2018-06-03T05:32:03.810Z,-73
2018-06-03T05:34:32.928Z,-73
2018-06-03T05:37:01.984Z,-73
2018-06-03T05:39:31.767Z,-73
2018-06-03T05:42:00.850Z,-73
2018-06-03T05:44:29.869Z,-73
2018-06-03T05:46:58.926Z,-73
2018-06-03T05:49:28.363Z,-73
2018-06-03T05:51:57.371Z,-73
2018-06-03T05:54:27.173Z,-73
2018-06-03T05:56:56.955Z,-73
2018-06-03T05:59:26.007Z,-73
2018-06-03T06:01:55.094Z,-73
2018-06-03T06:04:24.871Z,-73
2018-06-03T06:06:53.959Z,-72
2018-06-03T06:09:23.008Z,-73
2018-06-03T06:11:52.055Z,-73
2018-06-03T06:14:21.237Z,-72
2018-06-03T06:16:50.289Z,-73
2018-06-03T06:19:19.302Z,-73
2018-06-03T06:21:48.343Z,-73
2018-06-03T06:24:17.430Z,-73
2018-06-03T06:26:46.503Z,-73
2018-06-03T06:29:15.557Z,-70
2018-06-03T06:31:44.595Z,-72
2018-06-03T06:34:13.607Z,-70
2018-06-03T06:36:42.639Z,-70
2018-06-03T06:39:11.767Z,-72
2018-06-03T06:42:11.787Z,-72
2018-06-03T06:44:42.767Z,-72
2018-06-03T06:47:12.999Z,-72
2018-06-03T06:49:43.203Z,-72
2018-06-03T06:52:13.454Z,-72
2018-06-03T06:54:43.846Z,-72
2018-06-03T06:57:14.154Z,-72
2018-06-03T06:59:44.611Z,-72
2018-06-03T07:02:14.853Z,-72
2018-06-03T07:04:45.104Z,-72
2018-06-03T07:07:15.335Z,-72
2018-06-03T07:09:45.555Z,-72
2018-06-03T07:12:15.823Z,-72
2018-06-03T07:14:46.192Z,-72
2018-06-03T07:17:16.454Z,-72
2018-06-03T07:19:46.697Z,-72
2018-06-03T07:22:16.959Z,-72
2018-06-03T07:24:47.227Z,-72
2018-06-03T07:27:17.483Z,-72
2018-06-03T07:29:47.697Z,-72
2018-06-03T07:32:17.968Z,-72
2018-06-03T07:34:48.683Z,-72
2018-06-03T07:37:19.291Z,-72
2018-06-03T07:39:50.066Z,-72
2018-06-03T07:42:20.868Z,-72
2018-06-03T07:44:51.125Z,-72
2018-06-03T07:47:21.517Z,-72
2018-06-03T07:49:51.745Z,-72
2018-06-03T07:52:22.057Z,-72
2018-06-03T07:54:52.948Z,-72
2018-06-03T07:57:23.313Z,-72
2018-06-03T07:59:53.491Z,-72
2018-06-03T08:02:23.727Z,-72
2018-06-03T08:04:53.931Z,-72
2018-06-03T08:07:24.182Z,-72
2018-06-03T08:09:54.383Z,-72
2018-06-03T08:12:24.655Z,-72
2018-06-03T08:14:54.914Z,-72
2018-06-03T08:17:25.154Z,-72
2018-06-03T08:19:55.395Z,-72
2018-06-03T08:22:25.729Z,-72
2018-06-03T08:24:55.976Z,-72
2018-06-03T08:27:26.367Z,-72
2018-06-03T08:29:56.579Z,-72
2018-06-03T08:32:26.911Z,-72
2018-06-03T08:34:57.139Z,-72
2018-06-03T08:37:27.385Z,-70
2018-06-03T08:39:57.600Z,-70
2018-06-03T08:42:27.836Z,-70
2018-06-03T08:44:58.039Z,-70
2018-06-03T08:47:28.312Z,-70
2018-06-03T08:49:58.539Z,-70
2018-06-03T08:52:28.927Z,-70
2018-06-03T08:54:59.171Z,-69
2018-06-03T08:57:29.433Z,-69
2018-06-03T08:59:59.910Z,-69
2018-06-03T09:02:30.175Z,-69
2018-06-03T09:05:00.698Z,-69
2018-06-03T09:07:30.971Z,-69
2018-06-03T09:10:01.214Z,-69
2018-06-03T09:12:31.528Z,-69
2018-06-03T09:15:02.906Z,-70
2018-06-03T09:17:33.213Z,-69
2018-06-03T09:20:04.070Z,-70
2018-06-03T09:22:34.816Z,-70
2018-06-03T09:25:05.637Z,-70
2018-06-03T09:27:36.022Z,-70
2018-06-03T09:30:06.500Z,-70
2018-06-03T09:32:36.722Z,-70
2018-06-03T09:35:08.450Z,-69
2018-06-03T09:37:38.822Z,-70
2018-06-03T09:40:09.660Z,-70
2018-06-03T09:42:40.231Z,-67
2018-06-03T09:45:12.127Z,-67
2018-06-03T09:47:43.188Z,-68
2018-06-03T09:50:15.314Z,-67
2018-06-03T09:52:46.129Z,-67
2018-06-03T09:55:17.569Z,-67
2018-06-03T09:57:48.486Z,-69
2018-06-03T10:00:23.337Z,-69
2018-06-03T10:02:53.715Z,-70
2018-06-03T10:05:27.403Z,-70
2018-06-03T10:07:57.647Z,-70
2018-06-03T10:10:29.637Z,-70
2018-06-03T10:13:00.393Z,-69
2018-06-03T10:15:32.501Z,-70
2018-06-03T10:18:03.606Z,-70
2018-06-03T10:20:34.010Z,-70
2018-06-03T10:23:04.357Z,-70
2018-06-03T10:25:34.668Z,-68
2018-06-03T10:28:05.563Z,-68
2018-06-03T10:30:36.588Z,-68
2018-06-03T10:33:07.321Z,-67
2018-06-03T10:35:38.710Z,-67
2018-06-03T10:38:08.935Z,-67
2018-06-03T10:40:39.783Z,-67
2018-06-03T10:43:10.006Z,-67
2018-06-03T10:45:40.991Z,-67
2018-06-03T10:48:11.208Z,-67
2018-06-03T10:50:44.909Z,-67
2018-06-03T10:53:16.153Z,-68
2018-06-03T10:55:46.649Z,-68
2018-06-03T10:58:16.947Z,-68
2018-06-03T11:00:47.230Z,-68
2018-06-03T11:03:17.515Z,-68
2018-06-03T11:05:48.103Z,-68
2018-06-03T11:08:18.643Z,-68
2018-06-03T11:10:48.895Z,-68
2018-06-03T11:13:19.110Z,-68
2018-06-03T11:15:49.504Z,-68
2018-06-03T11:18:23.440Z,-68
2018-06-03T11:20:59.140Z,-68
2018-06-03T11:23:31.393Z,-68
2018-06-03T11:26:04.063Z,-68
2018-06-03T11:28:34.728Z,-68
2018-06-03T11:31:05.118Z,-68
2018-06-03T11:33:41.806Z,-68
2018-06-03T11:36:13.600Z,-68
2018-06-03T11:38:47.050Z,-68
2018-06-03T11:41:19.645Z,-68
2018-06-03T11:43:53.687Z,-68
2018-06-03T11:47:49.880Z,-68
2018-06-03T11:50:22.429Z,-68
2018-06-03T11:52:54.495Z,-68
2018-06-03T11:55:26.253Z,-68
2018-06-03T11:58:42.356Z,-68
2018-06-03T12:01:16.105Z,-68
2018-06-03T12:03:49.620Z,-68
2018-06-03T12:06:22.794Z,-68
2018-06-03T12:08:58.204Z,-68
2018-06-03T12:11:30.162Z,-68
2018-06-03T12:14:03.745Z,-68
2018-06-03T12:16:37.508Z,-68
2018-06-03T12:19:10.058Z,-68
2018-06-03T12:21:43.054Z,-68
2018-06-03T12:24:15.084Z,-68
2018-06-03T12:26:48.167Z,-68
2018-06-03T12:29:21.921Z,-68
2018-06-03T12:31:56.311Z,-68
2018-06-03T12:34:28.124Z,-69
2018-06-03T12:37:00.592Z,-69
2018-06-03T12:39:34.737Z,-69
2018-06-03T12:42:05.498Z,-69
2018-06-03T12:44:36.046Z,-69
2018-06-03T12:47:07.039Z,-68
2018-06-03T12:49:37.536Z,-68
2018-06-03T12:52:08.317Z,-68
2018-06-03T12:54:38.949Z,-68
2018-06-03T12:57:09.569Z,-68
2018-06-03T12:59:39.810Z,-68
2018-06-03T13:02:10.092Z,-68
2018-06-03T13:04:40.291Z,-68
2018-06-03T13:07:10.533Z,-68
2018-06-03T13:09:40.760Z,-68
2018-06-03T13:12:10.983Z,-69
2018-06-03T13:14:41.227Z,-69
2018-06-03T13:17:11.575Z,-68
2018-06-03T13:19:41.799Z,-68
2018-06-03T13:22:12.044Z,-68
2018-06-03T13:24:42.251Z,-68
2018-06-03T13:27:13.038Z,-68
2018-06-03T13:29:43.318Z,-68
2018-06-03T13:32:13.886Z,-68
2018-06-03T13:34:44.166Z,-68
2018-06-03T13:37:14.451Z,-68
2018-06-03T13:39:45.132Z,-68
2018-06-03T13:42:15.414Z,-68
2018-06-03T13:44:46.038Z,-68
2018-06-03T13:47:16.467Z,-68
2018-06-03T13:49:46.683Z,-68
2018-06-03T13:52:17.018Z,-68
2018-06-03T13:54:47.138Z,-68
2018-06-03T13:57:17.468Z,-68
2018-06-03T13:59:47.720Z,-68
2018-06-03T14:02:17.961Z,-68
2018-06-03T14:04:48.194Z,-68
2018-06-03T14:07:18.489Z,-69
2018-06-03T14:09:48.834Z,-69
2018-06-03T14:12:19.192Z,-69
2018-06-03T14:14:49.484Z,-69
2018-06-03T14:17:19.738Z,-69
2018-06-03T14:19:49.943Z,-69
2018-06-03T14:22:20.211Z,-69
2018-06-03T14:24:50.447Z,-69
2018-06-03T14:27:20.738Z,-69
2018-06-03T14:29:51.128Z,-69
2018-06-03T14:32:21.395Z,-69
2018-06-03T14:34:51.708Z,-69
2018-06-03T14:37:21.967Z,-69
2018-06-03T14:39:52.222Z,-69
2018-06-03T14:42:22.439Z,-69
2018-06-03T14:44:52.763Z,-69
2018-06-03T14:47:23.004Z,-69
2018-06-03T14:49:53.280Z,-69
2018-06-03T14:52:23.524Z,-69
2018-06-03T14:54:53.762Z,-69
2018-06-03T14:57:24.177Z,-69
2018-06-03T14:59:54.411Z,-69
2018-06-03T15:02:24.660Z,-69
2018-06-03T15:04:54.927Z,-70
2018-06-03T15:07:25.147Z,-70
2018-06-03T15:09:55.414Z,-69
2018-06-03T15:12:25.671Z,-69
2018-06-03T15:15:02.696Z,-69
2018-06-03T15:17:32.923Z,-69
2018-06-03T15:20:03.174Z,-69
2018-06-03T15:22:33.412Z,-69
2018-06-03T15:25:03.823Z,-69
2018-06-03T15:27:34.011Z,-69
2018-06-03T15:30:04.304Z,-69
2018-06-03T15:32:34.495Z,-69
2018-06-03T15:35:04.743Z,-69
2018-06-03T15:37:35.000Z,-69
2018-06-03T15:40:05.356Z,-69
2018-06-03T15:42:35.783Z,-69
2018-06-03T15:45:06.135Z,-69
2018-06-03T15:47:36.079Z,-69
2018-06-03T15:50:06.200Z,-69
2018-06-03T15:52:36.399Z,-69
2018-06-03T15:55:06.649Z,-69
2018-06-03T15:57:36.858Z,-69
2018-06-03T16:00:07.276Z,-69
2018-06-03T16:02:37.509Z,-69
2018-06-03T16:05:07.859Z,-69
2018-06-03T16:07:38.355Z,-69
2018-06-03T16:10:11.779Z,-69
2018-06-03T16:12:42.684Z,-69
2018-06-03T16:15:13.199Z,-69
2018-06-03T16:17:43.528Z,-69
2018-06-03T16:20:13.844Z,-69
2018-06-03T16:22:44.109Z,-69
2018-06-03T16:25:14.318Z,-69
2018-06-03T16:27:44.608Z,-69
2018-06-03T16:30:14.840Z,-69
2018-06-03T16:32:45.073Z,-69
2018-06-03T16:35:15.991Z,-69
2018-06-03T16:37:46.331Z,-69
2018-06-03T16:40:16.587Z,-69
2018-06-03T16:42:46.824Z,-69
2018-06-03T16:45:17.071Z,-69
2018-06-03T16:47:47.288Z,-69
2018-06-03T16:50:17.571Z,-70
2018-06-03T16:52:47.803Z,-71
2018-06-03T16:55:18.083Z,-71
2018-06-03T16:57:48.400Z,-71
2018-06-03T17:00:18.681Z,-70
2018-06-03T17:02:48.903Z,-70
2018-06-03T17:05:19.143Z,-71
2018-06-03T17:07:49.340Z,-71
2018-06-03T17:10:19.659Z,-71
2018-06-03T17:12:54.674Z,-72
2018-06-03T17:15:39.468Z,-71
2018-06-03T17:18:09.703Z,-70
2018-06-03T17:20:39.927Z,-70
2018-06-03T17:23:10.159Z,-73
2018-06-03T17:25:41.677Z,-72
2018-06-03T17:28:12.198Z,-72
2018-06-03T17:30:42.449Z,-74
2018-06-03T17:33:12.659Z,-72
2018-06-03T17:35:42.926Z,-72
2018-06-03T17:38:13.200Z,-72
2018-06-03T17:40:43.527Z,-73
2018-06-03T17:43:14.379Z,-73
2018-06-03T17:45:44.728Z,-75
2018-06-03T17:48:14.966Z,-72
2018-06-03T17:50:45.225Z,-74
2018-06-03T17:53:15.495Z,-74
2018-06-03T17:55:45.772Z,-74
2018-06-03T17:58:16.059Z,-74
2018-06-03T18:00:46.311Z,-72
2018-06-03T18:03:16.519Z,-72
2018-06-03T18:05:46.824Z,-72
2018-06-03T18:08:17.051Z,-74
2018-06-03T18:10:47.307Z,-72
2018-06-03T18:13:17.580Z,-72
2018-06-03T18:15:48.000Z,-72
2018-06-03T18:18:18.223Z,-74
2018-06-03T18:20:48.547Z,-74
2018-06-03T18:23:18.775Z,-72
2018-06-03T18:25:49.092Z,-74
2018-06-03T18:28:19.350Z,-74
2018-06-03T18:30:49.616Z,-73
2018-06-03T18:33:19.837Z,-74
2018-06-03T18:35:50.090Z,-75
2018-06-03T18:38:20.331Z,-72
2018-06-03T18:40:50.630Z,-72
2018-06-03T18:43:20.842Z,-72
2018-06-03T18:45:52.454Z,-72
2018-06-03T18:48:22.647Z,-74
2018-06-03T18:50:56.271Z,-72
2018-06-03T18:53:27.871Z,-72
2018-06-03T18:55:58.276Z,-72
2018-06-03T18:58:28.613Z,-73
2018-06-03T19:00:58.856Z,-74
2018-06-03T19:03:29.200Z,-74
2018-06-03T19:05:59.671Z,-74
2018-06-03T19:08:30.040Z,-74
2018-06-03T19:11:00.062Z,-75
2018-06-03T19:13:30.239Z,-75
2018-06-03T19:16:00.485Z,-72
2018-06-03T19:18:30.894Z,-74
2018-06-03T19:21:01.269Z,-74
2018-06-03T19:23:31.478Z,-72
2018-06-03T19:26:01.965Z,-71
2018-06-03T19:28:32.341Z,-71
2018-06-03T19:31:02.815Z,-71
2018-06-03T19:33:33.212Z,-74
2018-06-03T19:36:03.459Z,-74
2018-06-03T19:38:33.676Z,-74
2018-06-03T19:41:03.987Z,-74
2018-06-03T19:43:34.249Z,-74
2018-06-03T19:46:04.671Z,-74
2018-06-03T19:48:35.343Z,-74
2018-06-03T19:51:05.631Z,-74
2018-06-03T19:53:36.041Z,-74
2018-06-03T19:56:06.333Z,-73
2018-06-03T19:58:36.740Z,-73
2018-06-03T20:01:07.610Z,-74
2018-06-03T20:03:38.233Z,-74
2018-06-03T20:06:08.601Z,-73
2018-06-03T20:08:39.145Z,-73
2018-06-03T20:11:09.929Z,-73
2018-06-03T20:13:40.263Z,-73
2018-06-03T20:16:10.396Z,-73
2018-06-03T20:18:40.696Z,-73
2018-06-03T20:21:11.166Z,-74
2018-06-03T20:23:41.454Z,-74
2018-06-03T20:26:12.793Z,-73
2018-06-03T20:28:43.267Z,-73
2018-06-03T20:31:13.515Z,-73
2018-06-03T20:33:45.216Z,-74
2018-06-03T20:36:15.588Z,-74
2018-06-03T20:38:47.179Z,-74
2018-06-03T20:41:18.427Z,-73
2018-06-03T20:43:49.422Z,-73
2018-06-03T20:46:20.304Z,-73
2018-06-03T20:48:51.793Z,-73
2018-06-03T20:51:23.433Z,-73
2018-06-03T20:53:54.764Z,-73
2018-06-03T20:56:25.953Z,-73
2018-06-03T20:58:56.731Z,-73
2018-06-03T21:01:27.346Z,-73
2018-06-03T21:03:59.263Z,-73
2018-06-03T21:06:29.842Z,-73
2018-06-03T21:09:01.489Z,-73
2018-06-03T21:11:32.291Z,-73
2018-06-03T21:14:04.857Z,-73
2018-06-03T21:16:35.564Z,-73
2018-06-03T21:19:06.231Z,-73
2018-06-03T21:21:38.393Z,-74
2018-06-03T21:24:09.305Z,-74
2018-06-03T21:26:42.471Z,-74
2018-06-03T21:29:13.181Z,-73
2018-06-03T21:31:43.830Z,-73
2018-06-03T21:34:14.192Z,-73
2018-06-03T21:36:44.407Z,-73
2018-06-03T21:39:15.111Z,-73
2018-06-03T21:41:45.355Z,-74
2018-06-03T21:44:15.650Z,-73
2018-06-03T21:46:45.858Z,-73
2018-06-03T21:49:16.148Z,-73
2018-06-03T21:51:46.378Z,-74
2018-06-03T21:54:16.610Z,-73
2018-06-03T21:56:46.796Z,-73
2018-06-03T21:59:17.056Z,-73
2018-06-03T22:01:48.179Z,-74
2018-06-03T22:04:19.056Z,-73
2018-06-03T22:06:49.981Z,-73
2018-06-03T22:09:20.944Z,-73
2018-06-03T22:11:52.303Z,-74
2018-06-03T22:14:23.582Z,-73
2018-06-03T22:16:55.032Z,-73
2018-06-03T22:19:25.638Z,-73
2018-06-03T22:21:56.306Z,-74
2018-06-03T22:24:27.133Z,-73
2018-06-03T22:26:58.747Z,-73
2018-06-03T22:29:29.374Z,-73
2018-06-03T22:32:00.101Z,-74
2018-06-03T22:34:30.371Z,-73
2018-06-03T22:37:00.592Z,-73
2018-06-03T22:39:30.830Z,-73
2018-06-03T22:42:01.107Z,-74
2018-06-03T22:44:31.316Z,-74
2018-06-03T22:47:01.571Z,-73
2018-06-03T22:49:31.779Z,-73
2018-06-03T22:52:02.014Z,-74
2018-06-03T22:54:32.267Z,-73
2018-06-03T22:58:08.411Z,-73
2018-06-03T23:00:38.738Z,-73
2018-06-03T23:03:14.919Z,-73
2018-06-03T23:05:45.154Z,-73
2018-06-03T23:08:15.362Z,-73
2018-06-03T23:10:48.435Z,-73
2018-06-03T23:13:18.683Z,-73
2018-06-03T23:15:48.972Z,-73
2018-06-03T23:18:19.220Z,-73
2018-06-03T23:20:49.483Z,-73
2018-06-03T23:23:19.799Z,-73
2018-06-03T23:25:50.031Z,-73
2018-06-03T23:28:20.306Z,-73
2018-06-03T23:30:50.604Z,-73
2018-06-03T23:33:20.547Z,-73
2018-06-03T23:35:50.852Z,-73
2018-06-03T23:38:21.079Z,-73
2018-06-03T23:40:51.385Z,-73
2018-06-03T23:43:21.687Z,-73
2018-06-03T23:45:52.164Z,-73
2018-06-03T23:48:22.368Z,-73
2018-06-03T23:50:52.651Z,-73
2018-06-03T23:53:22.873Z,-73
2018-06-03T23:55:53.112Z,-73
2018-06-03T23:58:23.345Z,-73
